createdAt,value
2023-04-05T00:00:13.779Z,74.10
2023-04-05T00:01:13.691Z,73.70
2023-04-05T00:02:14.662Z,73.70
2023-04-05T00:04:14.049Z,73.80
2023-04-05T00:05:14.083Z,74.10
2023-04-05T00:06:13.243Z,74.60
2023-04-05T00:07:13.687Z,74.10
2023-04-05T00:08:13.782Z,74.20
2023-04-05T00:09:13.998Z,74.50
2023-04-05T00:10:13.346Z,75.50
2023-04-05T00:11:13.643Z,75.50
2023-04-05T00:12:13.747Z,75.60
2023-04-05T00:13:14.156Z,76.20
2023-04-05T00:14:13.296Z,76.30
2023-04-05T00:15:13.274Z,76.00
2023-04-05T00:16:13.620Z,76.60
2023-04-05T00:17:13.703Z,76.10
2023-04-05T00:18:13.857Z,75.70
2023-04-05T00:19:13.102Z,76.70
2023-04-05T00:20:13.092Z,75.90
2023-04-05T00:21:13.062Z,76.60
2023-04-05T00:22:13.044Z,75.90
2023-04-05T00:23:13.066Z,76.40
2023-04-05T00:24:13.403Z,76.30
2023-04-05T00:25:13.628Z,77.40
2023-04-05T00:26:13.549Z,76.70
2023-04-05T00:27:13.641Z,77.20
2023-04-05T00:28:13.880Z,78.40
2023-04-05T00:29:12.786Z,77.70
2023-04-05T00:30:13.750Z,77.60
2023-04-05T00:31:14.017Z,78.60
2023-04-05T00:32:13.119Z,79.40
2023-04-05T00:33:13.230Z,80.30
2023-04-05T00:34:13.219Z,81.90
2023-04-05T00:35:13.256Z,83.10
2023-04-05T00:36:14.646Z,84.90
2023-04-05T00:37:13.989Z,87.20
2023-04-05T00:38:13.140Z,86.90
2023-04-05T00:39:13.064Z,87.00
2023-04-05T00:40:13.032Z,88.80
2023-04-05T00:41:13.174Z,88.80
2023-04-05T00:42:13.016Z,88.50
2023-04-05T00:43:12.946Z,89.90
2023-04-05T00:44:12.864Z,92.30
2023-04-05T00:45:13.739Z,92.40
2023-04-05T00:46:14.040Z,93.60
2023-04-05T00:47:13.012Z,97.80
2023-04-05T00:48:12.952Z,96.70
2023-04-05T00:49:13.037Z,97.00
2023-04-05T00:50:12.950Z,100.00
2023-04-05T00:51:12.838Z,100.00
2023-04-05T00:52:13.881Z,100.00
2023-04-05T00:53:13.033Z,100.00
2023-04-05T00:54:13.034Z,100.00
2023-04-05T00:55:13.021Z,100.00
2023-04-05T00:56:13.058Z,100.00
2023-04-05T00:57:13.186Z,100.00
2023-04-05T00:58:13.270Z,100.00
2023-04-05T00:59:13.562Z,100.00
2023-04-05T01:00:13.541Z,100.00
2023-04-05T01:01:13.604Z,100.00
2023-04-05T01:02:13.923Z,100.00
2023-04-05T01:03:12.920Z,100.00
2023-04-05T01:04:13.243Z,100.00
2023-04-05T01:05:13.428Z,100.00
2023-04-05T01:06:14.919Z,100.00
2023-04-05T01:07:13.390Z,100.00
2023-04-05T01:08:13.590Z,100.00
2023-04-05T01:09:13.820Z,100.00
2023-04-05T01:10:14.035Z,100.00
2023-04-05T01:11:13.088Z,100.00
2023-04-05T01:12:13.018Z,100.00
2023-04-05T01:13:13.611Z,100.00
2023-04-05T01:14:13.657Z,100.00
2023-04-05T01:15:13.648Z,100.00
2023-04-05T01:16:13.733Z,100.00
2023-04-05T01:17:13.889Z,100.00
2023-04-05T01:18:12.929Z,100.00
2023-04-05T01:19:12.944Z,100.00
2023-04-05T01:20:12.857Z,100.00
2023-04-05T01:21:13.936Z,100.00
2023-04-05T01:22:12.918Z,100.00
2023-04-05T01:23:12.972Z,100.00
2023-04-05T01:24:13.041Z,100.00
2023-04-05T01:25:13.019Z,100.00
2023-04-05T01:26:13.040Z,100.00
2023-04-05T01:27:12.941Z,100.00
2023-04-05T01:28:12.836Z,100.00
2023-04-05T01:29:13.805Z,100.00
2023-04-05T01:30:13.946Z,100.00
2023-04-05T01:31:12.773Z,100.00
2023-04-05T01:32:13.914Z,100.00
2023-04-05T01:33:12.835Z,100.00
2023-04-05T01:34:13.778Z,100.00
2023-04-05T01:35:13.754Z,100.00
2023-04-05T01:36:14.030Z,100.00
2023-04-05T01:37:13.025Z,100.00
2023-04-05T01:38:12.949Z,100.00
2023-04-05T01:39:12.816Z,100.00
2023-04-05T01:40:13.868Z,100.00
2023-04-05T01:41:13.716Z,100.00
2023-04-05T01:42:13.937Z,100.00
2023-04-05T01:43:13.133Z,100.00
2023-04-05T01:44:13.111Z,100.00
2023-04-05T01:45:13.016Z,100.00
2023-04-05T01:46:12.965Z,100.00
2023-04-05T01:47:13.389Z,100.00
2023-04-05T01:48:13.458Z,100.00
2023-04-05T01:49:14.050Z,100.00
2023-04-05T01:50:12.979Z,100.00
2023-04-05T01:51:12.908Z,100.00
2023-04-05T01:52:13.509Z,100.00
2023-04-05T01:53:13.588Z,100.00
2023-04-05T01:54:13.890Z,100.00
2023-04-05T01:55:12.960Z,100.00
2023-04-05T01:56:12.925Z,100.00
2023-04-05T01:57:13.325Z,100.00
2023-04-05T01:58:13.596Z,100.00
2023-04-05T01:59:13.479Z,100.00
2023-04-05T02:00:13.554Z,100.00
2023-04-05T02:01:13.648Z,100.00
2023-04-05T02:02:13.766Z,100.00
2023-04-05T02:03:13.645Z,100.00
2023-04-05T02:04:13.697Z,100.00
2023-04-05T02:05:14.026Z,100.00
2023-04-05T02:06:12.960Z,100.00
2023-04-05T02:07:12.936Z,100.00
2023-04-05T02:08:13.091Z,100.00
2023-04-05T02:09:13.238Z,100.00
2023-04-05T02:10:13.234Z,100.00
2023-04-05T02:11:13.329Z,100.00
2023-04-05T02:12:13.232Z,100.00
2023-04-05T02:13:13.492Z,100.00
2023-04-05T02:14:13.383Z,100.00
2023-04-05T02:15:13.282Z,100.00
2023-04-05T02:16:13.564Z,100.00
2023-04-05T02:17:13.426Z,100.00
2023-04-05T02:18:13.409Z,100.00
2023-04-05T02:19:13.271Z,100.00
2023-04-05T02:20:13.281Z,100.00
2023-04-05T02:21:13.370Z,100.00
2023-04-05T02:22:13.322Z,100.00
2023-04-05T02:23:13.920Z,100.00
2023-04-05T02:24:12.944Z,100.00
2023-04-05T02:25:13.019Z,100.00
2023-04-05T02:26:13.258Z,100.00
2023-04-05T02:27:13.653Z,100.00
2023-04-05T02:28:13.937Z,100.00
2023-04-05T02:29:13.202Z,100.00
2023-04-05T02:30:13.111Z,100.00
2023-04-05T02:31:12.990Z,100.00
2023-04-05T02:32:13.097Z,100.00
2023-04-05T02:33:13.167Z,100.00
2023-04-05T02:34:13.526Z,100.00
2023-04-05T02:35:13.456Z,100.00
2023-04-05T02:36:13.381Z,100.00
2023-04-05T02:37:13.385Z,100.00
2023-04-05T02:38:13.662Z,100.00
2023-04-05T02:39:13.683Z,100.00
2023-04-05T02:40:13.864Z,100.00
2023-04-05T02:41:14.256Z,100.00
2023-04-05T02:42:13.285Z,100.00
2023-04-05T02:43:13.299Z,100.00
2023-04-05T02:44:13.318Z,100.00
2023-04-05T02:45:13.631Z,100.00
2023-04-05T02:46:13.529Z,100.00
2023-04-05T02:47:13.438Z,100.00
2023-04-05T02:48:13.629Z,100.00
2023-04-05T02:49:13.855Z,100.00
2023-04-05T02:50:13.740Z,100.00
2023-04-05T02:51:13.673Z,100.00
2023-04-05T02:52:13.643Z,100.00
2023-04-05T02:53:13.588Z,100.00
2023-04-05T02:54:14.048Z,100.00
2023-04-05T02:55:13.274Z,100.00
2023-04-05T02:56:13.187Z,100.00
2023-04-05T02:57:13.011Z,100.00
2023-04-05T02:58:12.922Z,100.00
2023-04-05T02:59:12.856Z,100.00
2023-04-05T03:00:13.810Z,100.00
2023-04-05T03:01:14.208Z,100.00
2023-04-05T03:02:13.289Z,100.00
2023-04-05T03:03:13.470Z,100.00
2023-04-05T03:04:13.602Z,100.00
2023-04-05T03:05:13.519Z,100.00
2023-04-05T03:06:13.373Z,100.00
2023-04-05T03:07:13.318Z,100.00
2023-04-05T03:08:13.370Z,100.00
2023-04-05T03:09:13.588Z,100.00
2023-04-05T03:10:13.623Z,100.00
2023-04-05T03:11:13.469Z,100.00
2023-04-05T03:12:13.433Z,100.00
2023-04-05T03:13:13.398Z,100.00
2023-04-05T03:14:13.310Z,100.00
2023-04-05T03:15:13.417Z,100.00
2023-04-05T03:16:13.955Z,100.00
2023-04-05T03:17:12.822Z,100.00
2023-04-05T03:18:13.990Z,100.00
2023-04-05T03:19:13.356Z,100.00
2023-04-05T03:20:13.299Z,100.00
2023-04-05T03:21:13.336Z,100.00
2023-04-05T03:22:13.142Z,100.00
2023-04-05T03:23:13.425Z,100.00
2023-04-05T03:24:13.735Z,100.00
2023-04-05T03:25:13.601Z,100.00
2023-04-05T03:26:13.872Z,100.00
2023-04-05T03:27:12.834Z,100.00
2023-04-05T03:28:13.734Z,100.00
2023-04-05T03:29:13.849Z,100.00
2023-04-05T03:30:13.713Z,100.00
2023-04-05T03:31:13.983Z,100.00
2023-04-05T03:32:13.156Z,100.00
2023-04-05T03:33:13.139Z,100.00
2023-04-05T03:34:13.063Z,100.00
2023-04-05T03:35:13.029Z,100.00
2023-04-05T03:36:13.224Z,100.00
2023-04-05T03:37:13.592Z,100.00
2023-04-05T03:38:13.728Z,100.00
2023-04-05T03:39:14.376Z,100.00
2023-04-05T03:40:13.453Z,100.00
2023-04-05T03:41:13.682Z,100.00
2023-04-05T03:42:13.767Z,100.00
2023-04-05T03:43:14.086Z,100.00
2023-04-05T03:44:13.526Z,100.00
2023-04-05T03:45:13.888Z,100.00
2023-04-05T03:46:14.359Z,100.00
2023-04-05T03:47:13.281Z,100.00
2023-04-05T03:48:14.066Z,100.00
2023-04-05T03:49:13.714Z,100.00
2023-04-05T03:50:15.351Z,100.00
2023-04-05T03:51:13.251Z,100.00
2023-04-05T03:52:13.390Z,100.00
2023-04-05T03:53:13.412Z,100.00
2023-04-05T03:54:13.333Z,100.00
2023-04-05T03:55:13.249Z,100.00
2023-04-05T03:56:13.714Z,100.00
2023-04-05T03:57:13.917Z,100.00
2023-04-05T03:58:12.800Z,100.00
2023-04-05T03:59:13.763Z,100.00
2023-04-05T04:00:13.860Z,100.00
2023-04-05T04:01:15.155Z,100.00
2023-04-05T04:02:13.211Z,100.00
2023-04-05T04:03:13.224Z,100.00
2023-04-05T04:04:13.252Z,100.00
2023-04-05T04:05:13.097Z,100.00
2023-04-05T04:06:13.101Z,100.00
2023-04-05T04:07:13.185Z,100.00
2023-04-05T04:08:13.595Z,100.00
2023-04-05T04:09:13.602Z,100.00
2023-04-05T04:10:13.624Z,100.00
2023-04-05T04:11:13.699Z,100.00
2023-04-05T04:12:13.980Z,100.00
2023-04-05T04:13:13.304Z,100.00
2023-04-05T04:14:13.436Z,100.00
2023-04-05T04:15:13.320Z,100.00
2023-04-05T04:16:13.341Z,100.00
2023-04-05T04:17:13.224Z,100.00
2023-04-05T04:18:13.451Z,100.00
2023-04-05T04:19:14.201Z,100.00
2023-04-05T04:20:13.058Z,100.00
2023-04-05T04:21:12.924Z,100.00
2023-04-05T04:22:13.070Z,100.00
2023-04-05T04:23:13.128Z,100.00
2023-04-05T04:24:13.184Z,100.00
2023-04-05T04:25:13.273Z,100.00
2023-04-05T04:26:13.236Z,100.00
2023-04-05T04:27:13.149Z,100.00
2023-04-05T04:28:13.269Z,100.00
2023-04-05T04:29:13.291Z,100.00
2023-04-05T04:30:13.224Z,100.00
2023-04-05T04:31:13.347Z,100.00
2023-04-05T04:32:13.204Z,100.00
2023-04-05T04:33:13.487Z,100.00
2023-04-05T04:34:13.444Z,100.00
2023-04-05T04:35:13.521Z,100.00
2023-04-05T04:36:19.264Z,100.00
2023-04-05T04:37:13.217Z,100.00
2023-04-05T04:38:13.297Z,100.00
2023-04-05T04:39:13.154Z,100.00
2023-04-05T04:40:13.400Z,100.00
2023-04-05T04:41:13.439Z,100.00
2023-04-05T04:42:14.496Z,100.00
2023-04-05T04:43:13.830Z,100.00
2023-04-05T04:44:14.017Z,100.00
2023-04-05T04:45:12.871Z,100.00
2023-04-05T04:46:13.928Z,100.00
2023-04-05T04:47:13.591Z,100.00
2023-04-05T04:48:12.952Z,100.00
2023-04-05T04:49:14.022Z,100.00
2023-04-05T04:50:13.148Z,100.00
2023-04-05T04:51:13.208Z,100.00
2023-04-05T04:52:13.211Z,100.00
2023-04-05T04:53:13.387Z,100.00
2023-04-05T04:54:13.269Z,100.00
2023-04-05T04:55:13.230Z,100.00
2023-04-05T04:56:13.317Z,100.00
2023-04-05T04:57:13.283Z,100.00
2023-04-05T04:58:13.181Z,100.00
2023-04-05T04:59:13.317Z,100.00
2023-04-05T05:00:13.515Z,100.00
2023-04-05T05:01:13.654Z,100.00
2023-04-05T05:02:13.568Z,100.00
2023-04-05T05:03:13.577Z,100.00
2023-04-05T05:04:13.946Z,100.00
2023-04-05T05:05:12.872Z,100.00
2023-04-05T05:06:13.325Z,100.00
2023-04-05T05:07:13.171Z,100.00
2023-04-05T05:08:13.094Z,100.00
2023-04-05T05:09:13.147Z,100.00
2023-04-05T05:10:13.492Z,100.00
2023-04-05T05:11:13.435Z,100.00
2023-04-05T05:12:13.407Z,100.00
2023-04-05T05:13:13.252Z,100.00
2023-04-05T05:14:13.169Z,100.00
2023-04-05T05:15:12.987Z,100.00
2023-04-05T05:16:13.224Z,100.00
2023-04-05T05:17:13.177Z,100.00
2023-04-05T05:18:13.198Z,100.00
2023-04-05T05:19:13.134Z,100.00
2023-04-05T05:20:13.578Z,100.00
2023-04-05T05:21:18.623Z,100.00
2023-04-05T05:22:13.771Z,100.00
2023-04-05T05:23:14.079Z,100.00
2023-04-05T05:24:12.949Z,100.00
2023-04-05T05:25:12.988Z,100.00
2023-04-05T05:26:13.146Z,100.00
2023-04-05T05:27:13.574Z,100.00
2023-04-05T05:28:13.890Z,100.00
2023-04-05T05:29:13.090Z,100.00
2023-04-05T05:30:18.058Z,100.00
2023-04-05T05:31:13.731Z,100.00
2023-04-05T05:32:13.854Z,100.00
2023-04-05T05:33:13.863Z,100.00
2023-04-05T05:34:13.042Z,100.00
2023-04-05T05:35:13.082Z,100.00
2023-04-05T05:36:13.013Z,100.00
2023-04-05T05:37:12.871Z,100.00
2023-04-05T05:38:14.160Z,100.00
2023-04-05T05:39:12.987Z,100.00
2023-04-05T05:40:12.841Z,100.00
2023-04-05T05:41:13.958Z,100.00
2023-04-05T05:42:13.186Z,100.00
2023-04-05T05:43:13.293Z,100.00
2023-04-05T05:44:13.770Z,100.00
2023-04-05T05:45:13.636Z,100.00
2023-04-05T05:46:14.324Z,100.00
2023-04-05T05:47:13.320Z,100.00
2023-04-05T05:48:13.580Z,100.00
2023-04-05T05:49:13.847Z,100.00
2023-04-05T05:50:13.715Z,100.00
2023-04-05T05:51:13.621Z,100.00
2023-04-05T05:52:13.656Z,100.00
2023-04-05T05:53:13.756Z,100.00
2023-04-05T05:54:13.703Z,100.00
2023-04-05T05:55:13.652Z,100.00
2023-04-05T05:56:13.562Z,100.00
2023-04-05T05:57:13.647Z,100.00
2023-04-05T05:58:13.570Z,100.00
2023-04-05T05:59:13.927Z,100.00
2023-04-05T06:00:12.932Z,100.00
2023-04-05T06:01:13.624Z,100.00
2023-04-05T06:02:18.882Z,100.00
2023-04-05T06:03:13.536Z,100.00
2023-04-05T06:04:13.595Z,100.00
2023-04-05T06:05:13.713Z,100.00
2023-04-05T06:06:13.691Z,100.00
2023-04-05T06:07:13.859Z,100.00
2023-04-05T06:08:13.918Z,100.00
2023-04-05T06:09:12.883Z,100.00
2023-04-05T06:10:14.022Z,100.00
2023-04-05T06:11:13.309Z,100.00
2023-04-05T06:12:13.300Z,100.00
2023-04-05T06:13:13.373Z,100.00
2023-04-05T06:14:13.344Z,100.00
2023-04-05T06:15:13.402Z,100.00
2023-04-05T06:16:13.300Z,100.00
2023-04-05T06:17:13.236Z,100.00
2023-04-05T06:18:13.381Z,100.00
2023-04-05T06:19:13.255Z,100.00
2023-04-05T06:20:13.469Z,100.00
2023-04-05T06:21:13.424Z,100.00
2023-04-05T06:22:13.349Z,100.00
2023-04-05T06:23:13.369Z,100.00
2023-04-05T06:24:13.536Z,100.00
2023-04-05T06:25:13.736Z,100.00
2023-04-05T06:26:13.194Z,100.00
2023-04-05T06:27:13.108Z,100.00
2023-04-05T06:28:13.603Z,100.00
2023-04-05T06:29:14.271Z,100.00
2023-04-05T06:30:13.398Z,100.00
2023-04-05T06:31:13.407Z,100.00
2023-04-05T06:32:13.436Z,100.00
2023-04-05T06:33:13.419Z,100.00
2023-04-05T06:34:13.427Z,100.00
2023-04-05T06:35:18.454Z,100.00
2023-04-05T06:36:13.510Z,100.00
2023-04-05T06:37:13.971Z,100.00
2023-04-05T06:38:13.456Z,100.00
2023-04-05T06:39:13.370Z,100.00
2023-04-05T06:40:13.561Z,100.00
2023-04-05T06:41:13.413Z,100.00
2023-04-05T06:42:13.530Z,100.00
2023-04-05T06:43:13.510Z,100.00
2023-04-05T06:44:13.836Z,100.00
2023-04-05T06:45:13.945Z,100.00
2023-04-05T06:46:12.864Z,100.00
2023-04-05T06:47:14.059Z,100.00
2023-04-05T06:48:13.010Z,100.00
2023-04-05T06:49:12.981Z,100.00
2023-04-05T06:50:13.563Z,100.00
2023-04-05T06:51:13.845Z,100.00
2023-04-05T06:52:13.976Z,100.00
2023-04-05T06:53:12.880Z,100.00
2023-04-05T06:54:12.995Z,100.00
2023-04-05T06:55:12.954Z,100.00
2023-04-05T06:56:13.010Z,100.00
2023-04-05T06:57:13.063Z,100.00
2023-04-05T06:58:13.308Z,100.00
2023-04-05T06:59:13.298Z,100.00
2023-04-05T07:00:13.379Z,100.00
2023-04-05T07:01:13.706Z,100.00
2023-04-05T07:02:13.900Z,100.00
2023-04-05T07:03:13.225Z,100.00
2023-04-05T07:04:13.326Z,100.00
2023-04-05T07:05:13.323Z,100.00
2023-04-05T07:06:13.325Z,100.00
2023-04-05T07:07:13.241Z,100.00
2023-04-05T07:08:13.048Z,100.00
2023-04-05T07:09:13.344Z,100.00
2023-04-05T07:10:13.641Z,100.00
2023-04-05T07:11:13.708Z,100.00
2023-04-05T07:12:13.569Z,100.00
2023-04-05T07:13:13.492Z,100.00
2023-04-05T07:14:13.432Z,100.00
2023-04-05T07:15:13.367Z,98.50
2023-04-05T07:16:13.411Z,93.50
2023-04-05T07:17:13.373Z,93.40
2023-04-05T07:18:13.289Z,96.40
2023-04-05T07:19:13.320Z,96.00
2023-04-05T07:20:18.544Z,92.80
2023-04-05T07:21:13.599Z,90.90
2023-04-05T07:22:13.478Z,88.30
2023-04-05T07:23:13.388Z,89.60
2023-04-05T07:24:13.446Z,89.40
2023-04-05T07:25:13.374Z,86.60
2023-04-05T07:26:13.283Z,86.10
2023-04-05T07:27:13.247Z,86.30
2023-04-05T07:28:13.368Z,84.50
2023-04-05T07:29:13.379Z,83.80
2023-04-05T07:30:13.360Z,83.50
2023-04-05T07:31:13.188Z,83.40
2023-04-05T07:32:13.138Z,82.00
2023-04-05T07:33:13.518Z,81.60
2023-04-05T07:34:13.446Z,78.10
2023-04-05T07:35:13.702Z,78.90
2023-04-05T07:36:13.739Z,77.30
2023-04-05T07:37:13.631Z,76.10
2023-04-05T07:38:14.017Z,77.60
2023-04-05T07:39:13.225Z,75.40
2023-04-05T07:40:13.120Z,75.80
2023-04-05T07:41:13.236Z,76.10
2023-04-05T07:42:13.292Z,75.70
2023-04-05T07:43:13.335Z,76.90
2023-04-05T07:44:13.229Z,75.00
2023-04-05T07:45:13.128Z,75.20
2023-04-05T07:46:13.062Z,75.80
2023-04-05T07:47:13.015Z,74.30
2023-04-05T07:48:12.951Z,74.80
2023-04-05T07:49:13.206Z,73.60
2023-04-05T07:50:13.216Z,74.90
2023-04-05T07:51:13.373Z,74.10
2023-04-05T07:52:13.282Z,75.00
2023-04-05T07:53:13.313Z,73.00
2023-04-05T07:54:13.295Z,73.70
2023-04-05T07:55:13.234Z,73.90
2023-04-05T07:56:13.259Z,72.00
2023-04-05T07:57:13.264Z,68.90
2023-04-05T07:58:13.367Z,67.10
2023-04-05T07:59:14.911Z,65.90
2023-04-05T08:00:13.178Z,66.30
2023-04-05T08:01:13.174Z,65.50
2023-04-05T08:02:14.988Z,64.60
2023-04-05T08:03:13.701Z,62.50
2023-04-05T08:04:14.122Z,60.90
2023-04-05T08:05:13.209Z,59.90
2023-04-05T08:06:13.673Z,60.00
2023-04-05T08:07:13.844Z,62.20
2023-04-05T08:08:13.875Z,63.00
2023-04-05T08:09:14.047Z,63.50
2023-04-05T08:10:12.954Z,60.80
2023-04-05T08:11:12.960Z,61.50
2023-04-05T08:12:13.004Z,60.20
2023-04-05T08:13:13.286Z,59.70
2023-04-05T08:14:13.661Z,59.50
2023-04-05T08:15:13.811Z,59.20
2023-04-05T08:16:14.004Z,58.30
2023-04-05T08:17:13.083Z,58.10
2023-04-05T08:18:13.237Z,57.60
2023-04-05T08:19:15.577Z,57.00
2023-04-05T08:20:13.782Z,54.50
2023-04-05T08:21:18.874Z,54.90
2023-04-05T08:22:13.848Z,56.00
2023-04-05T08:23:14.112Z,56.00
2023-04-05T08:24:13.247Z,55.70
2023-04-05T08:25:13.641Z,55.90
2023-04-05T08:26:13.868Z,57.30
2023-04-05T08:27:13.895Z,56.10
2023-04-05T08:28:12.936Z,55.40
2023-04-05T08:29:13.037Z,55.60
2023-04-05T08:30:13.180Z,55.70
2023-04-05T08:31:13.959Z,55.70
2023-04-05T08:32:13.412Z,54.00
2023-04-05T08:33:13.517Z,53.60
2023-04-05T08:34:13.430Z,53.90
2023-04-05T08:35:13.419Z,54.20
2023-04-05T08:36:13.320Z,53.00
2023-04-05T08:37:13.598Z,52.50
2023-04-05T08:38:13.675Z,52.80
2023-04-05T08:39:14.935Z,53.40
2023-04-05T08:40:12.962Z,53.80
2023-04-05T08:41:12.945Z,52.60
2023-04-05T08:42:12.842Z,53.10
2023-04-05T08:43:14.036Z,53.30
2023-04-05T08:44:12.985Z,53.60
2023-04-05T08:45:12.938Z,53.70
2023-04-05T08:46:12.987Z,53.40
2023-04-05T08:47:13.020Z,52.50
2023-04-05T08:48:13.155Z,51.00
2023-04-05T08:49:13.605Z,51.80
2023-04-05T08:50:13.577Z,51.90
2023-04-05T08:51:13.481Z,52.50
2023-04-05T08:52:13.510Z,51.10
2023-04-05T08:53:13.711Z,52.70
2023-04-05T08:54:13.872Z,50.30
2023-04-05T08:55:19.001Z,50.20
2023-04-05T08:56:12.934Z,49.30
2023-04-05T08:57:13.094Z,49.70
2023-04-05T08:58:13.085Z,51.20
2023-04-05T08:59:13.122Z,50.50
2023-04-05T09:00:13.116Z,50.40
2023-04-05T09:01:13.111Z,50.20
2023-04-05T09:02:13.171Z,49.50
2023-04-05T09:03:13.676Z,50.80
2023-04-05T09:04:14.032Z,49.20
2023-04-05T09:05:13.174Z,49.30
2023-04-05T09:06:13.253Z,49.60
2023-04-05T09:07:13.538Z,49.90
2023-04-05T09:08:13.572Z,49.30
2023-04-05T09:09:13.864Z,49.30
2023-04-05T09:10:14.130Z,48.40
2023-04-05T09:11:13.130Z,48.50
2023-04-05T09:12:13.189Z,48.30
2023-04-05T09:13:13.266Z,47.50
2023-04-05T09:14:13.164Z,46.70
2023-04-05T09:15:13.302Z,46.80
2023-04-05T09:16:13.150Z,45.90
2023-04-05T09:17:13.097Z,44.40
2023-04-05T09:18:25.627Z,43.80
2023-04-05T09:19:13.222Z,42.10
2023-04-05T09:20:13.100Z,42.30
2023-04-05T09:21:12.908Z,42.00
2023-04-05T09:22:13.165Z,39.70
2023-04-05T09:23:13.181Z,39.10
2023-04-05T09:24:13.260Z,40.10
2023-04-05T09:25:13.456Z,39.20
2023-04-05T09:26:13.599Z,38.00
2023-04-05T09:27:13.842Z,38.50
2023-04-05T09:28:12.840Z,38.50
2023-04-05T09:29:13.876Z,38.60
2023-04-05T09:30:13.774Z,37.50
2023-04-05T09:31:13.858Z,37.40
2023-04-05T09:32:14.004Z,37.70
2023-04-05T09:33:13.137Z,38.30
2023-04-05T09:34:13.220Z,39.10
2023-04-05T09:35:13.173Z,36.80
2023-04-05T09:36:13.245Z,38.70
2023-04-05T09:37:13.310Z,39.70
2023-04-05T09:38:13.668Z,39.40
2023-04-05T09:39:13.646Z,38.70
2023-04-05T09:40:13.509Z,39.60
2023-04-05T09:41:13.573Z,38.40
2023-04-05T09:42:13.491Z,39.00
2023-04-05T09:43:13.437Z,38.90
2023-04-05T09:44:13.298Z,38.50
2023-04-05T09:45:13.379Z,38.90
2023-04-05T09:46:13.618Z,38.10
2023-04-05T09:47:13.493Z,39.30
2023-04-05T09:48:13.532Z,38.30
2023-04-05T09:49:13.464Z,37.80
2023-04-05T09:50:13.320Z,38.40
2023-04-05T09:51:13.523Z,39.10
2023-04-05T09:52:13.410Z,36.70
2023-04-05T09:53:13.483Z,37.80
2023-04-05T09:54:13.693Z,36.80
2023-04-05T09:55:13.782Z,35.80
2023-04-05T09:56:13.917Z,35.30
2023-04-05T09:57:12.974Z,36.20
2023-04-05T09:58:12.983Z,36.20
2023-04-05T09:59:12.991Z,36.20
2023-04-05T10:00:12.983Z,37.50
2023-04-05T10:01:17.151Z,37.70
2023-04-05T10:02:13.590Z,36.30
2023-04-05T10:03:13.601Z,35.00
2023-04-05T10:04:14.199Z,33.60
2023-04-05T10:05:13.116Z,33.90
2023-04-05T10:06:13.538Z,35.80
2023-04-05T10:07:13.826Z,35.50
2023-04-05T10:08:14.158Z,35.70
2023-04-05T10:09:13.309Z,35.20
2023-04-05T10:10:13.556Z,35.00
2023-04-05T10:11:13.875Z,34.80
2023-04-05T10:12:13.746Z,34.70
2023-04-05T10:13:13.743Z,34.40
2023-04-05T10:14:13.756Z,34.20
2023-04-05T10:15:13.761Z,33.80
2023-04-05T10:16:13.782Z,32.70
2023-04-05T10:17:13.891Z,33.30
2023-04-05T10:18:13.480Z,33.60
2023-04-05T10:19:13.516Z,32.90
2023-04-05T10:20:13.665Z,34.70
2023-04-05T10:21:13.908Z,34.00
2023-04-05T10:22:13.069Z,33.60
2023-04-05T10:23:13.113Z,33.90
2023-04-05T10:24:12.990Z,34.60
2023-04-05T10:25:13.275Z,33.90
2023-04-05T10:26:13.152Z,32.20
2023-04-05T10:27:13.068Z,31.40
2023-04-05T10:28:13.005Z,32.20
2023-04-05T10:29:12.998Z,33.80
2023-04-05T10:30:13.169Z,34.20
2023-04-05T10:31:18.844Z,33.30
2023-04-05T10:32:13.201Z,32.60
2023-04-05T10:33:13.290Z,35.30
2023-04-05T10:34:13.331Z,34.20
2023-04-05T10:35:13.408Z,33.30
2023-04-05T10:36:13.358Z,34.60
2023-04-05T10:37:13.377Z,34.20
2023-04-05T10:38:13.306Z,32.90
2023-04-05T10:39:13.445Z,32.60
2023-04-05T10:40:22.001Z,34.10
2023-04-05T10:41:12.947Z,33.50
2023-04-05T10:42:12.809Z,33.30
2023-04-05T10:43:14.100Z,32.20
2023-04-05T10:44:24.833Z,30.70
2023-04-05T10:45:12.965Z,31.80
2023-04-05T10:46:12.892Z,32.30
2023-04-05T10:47:13.148Z,31.70
2023-04-05T10:48:13.211Z,31.50
2023-04-05T10:49:13.252Z,32.50
2023-04-05T10:50:13.370Z,33.20
2023-04-05T10:51:13.286Z,31.40
2023-04-05T10:52:13.131Z,31.00
2023-04-05T10:53:13.375Z,31.30
2023-04-05T10:54:13.595Z,31.60
2023-04-05T10:55:13.693Z,31.20
2023-04-05T10:56:13.606Z,31.10
2023-04-05T10:57:13.780Z,31.20
2023-04-05T10:58:13.877Z,30.50
2023-04-05T10:59:12.936Z,30.90
2023-04-05T11:00:12.964Z,29.50
2023-04-05T11:01:13.252Z,29.20
2023-04-05T11:02:13.365Z,29.70
2023-04-05T11:03:13.286Z,28.40
2023-04-05T11:04:13.525Z,28.10
2023-04-05T11:05:13.760Z,28.10
2023-04-05T11:06:13.893Z,28.50
2023-04-05T11:07:13.137Z,28.70
2023-04-05T11:08:13.004Z,28.10
2023-04-05T11:09:13.032Z,29.00
2023-04-05T11:10:13.078Z,29.40
2023-04-05T11:11:13.218Z,29.30
2023-04-05T11:12:13.198Z,30.50
2023-04-05T11:13:13.143Z,31.60
2023-04-05T11:14:13.061Z,31.70
2023-04-05T11:15:13.112Z,30.60
2023-04-05T11:16:13.254Z,32.60
2023-04-05T11:17:13.920Z,32.70
2023-04-05T11:18:12.919Z,33.00
2023-04-05T11:19:12.981Z,32.30
2023-04-05T11:20:13.010Z,32.00
2023-04-05T11:21:13.007Z,31.50
2023-04-05T11:22:13.294Z,31.30
2023-04-05T11:23:13.133Z,30.90
2023-04-05T11:24:13.226Z,31.10
2023-04-05T11:25:13.256Z,30.30
2023-04-05T11:26:13.360Z,30.40
2023-04-05T11:27:13.299Z,30.80
2023-04-05T11:28:13.407Z,29.30
2023-04-05T11:29:13.525Z,27.90
2023-04-05T11:30:13.650Z,28.00
2023-04-05T11:31:13.785Z,27.40
2023-04-05T11:32:13.065Z,29.10
2023-04-05T11:33:12.997Z,29.40
2023-04-05T11:34:13.044Z,29.60
2023-04-05T11:35:12.949Z,29.90
2023-04-05T11:36:13.149Z,29.60
2023-04-05T11:37:13.117Z,28.80
2023-04-05T11:38:13.350Z,27.90
2023-04-05T11:39:13.179Z,26.90
2023-04-05T11:40:13.097Z,26.90
2023-04-05T11:41:13.286Z,26.10
2023-04-05T11:42:13.463Z,27.90
2023-04-05T11:43:13.529Z,27.50
2023-04-05T11:44:13.873Z,26.40
2023-04-05T11:45:13.865Z,26.40
2023-04-05T11:46:13.994Z,25.60
2023-04-05T11:47:12.833Z,24.90
2023-04-05T11:48:13.817Z,24.20
2023-04-05T11:49:13.868Z,25.50
2023-04-05T11:50:14.231Z,27.20
2023-04-05T11:51:13.661Z,28.20
2023-04-05T11:52:13.970Z,28.60
2023-04-05T11:53:13.066Z,27.80
2023-04-05T11:54:13.023Z,27.10
2023-04-05T11:55:13.190Z,26.90
2023-04-05T11:56:13.570Z,25.80
2023-04-05T11:57:13.634Z,25.50
2023-04-05T11:58:13.758Z,27.30
2023-04-05T11:59:13.950Z,27.20
2023-04-05T12:00:12.845Z,27.60
2023-04-05T12:01:13.766Z,26.30
2023-04-05T12:02:14.010Z,26.40
2023-04-05T12:03:13.070Z,26.70
2023-04-05T12:04:13.645Z,27.40
2023-04-05T12:05:13.507Z,27.50
2023-04-05T12:06:13.811Z,27.00
2023-04-05T12:07:13.815Z,27.00
2023-04-05T12:08:13.797Z,26.70
2023-04-05T12:09:13.703Z,26.80
2023-04-05T12:10:13.783Z,26.50
2023-04-05T12:11:13.608Z,26.10
2023-04-05T12:12:13.577Z,27.20
2023-04-05T12:13:13.732Z,26.10
2023-04-05T12:14:13.554Z,25.10
2023-04-05T12:15:13.862Z,24.60
2023-04-05T12:16:13.924Z,24.10
2023-04-05T12:17:13.041Z,24.10
2023-04-05T12:18:13.006Z,23.70
2023-04-05T12:19:13.099Z,23.80
2023-04-05T12:20:13.100Z,24.50
2023-04-05T12:21:13.267Z,24.90
2023-04-05T12:22:13.257Z,26.40
2023-04-05T12:23:13.201Z,27.20
2023-04-05T12:24:13.459Z,27.10
2023-04-05T12:25:13.663Z,27.70
2023-04-05T12:26:13.623Z,28.20
2023-04-05T12:27:13.586Z,27.70
2023-04-05T12:28:13.621Z,27.00
2023-04-05T12:29:13.517Z,27.10
2023-04-05T12:30:13.522Z,27.10
2023-04-05T12:31:13.562Z,26.80
2023-04-05T12:32:14.137Z,26.50
2023-04-05T12:33:13.152Z,26.90
2023-04-05T12:34:14.146Z,26.50
2023-04-05T12:35:13.525Z,25.70
2023-04-05T12:36:13.427Z,25.30
2023-04-05T12:37:16.527Z,24.90
2023-04-05T12:38:16.166Z,24.50
2023-04-05T12:39:14.735Z,24.20
2023-04-05T12:40:14.155Z,23.00
2023-04-05T12:41:15.392Z,24.90